ADDS TAF Board INFO
 
 

IDs: Format: Expanded Condensed

KLAS - Las Vegas/McCarran I, NV, US

Issued at 0257 UTC 28 Aug 2014
Time0256Z28/04Z28/05Z28/06Z28/07Z28/08Z28/09Z28/10Z28/11Z28/12Z28/13Z28/14Z28/15Z28/16Z
TypeOBSPRVLPRVLPRVLPRVLPRVLPRVLPRVLPRVLPRVLPRVLPRVLPRVLPRVL
Vis10>6>6>6>6>6>6>6>6>6>6>6>6>6
Cig----------------------------
CoverCLRSKCSKCSKCSKCSKCSKCSKCSKCSKCSKCSKCSKCSKC
FltCat--VFRVFRVFRVFRVFRVFRVFRVFRVFRVFRVFRVFRVFR
Wx----------------------------
WDir150200200200200200200200200200200200200VRB
WSpd58888888888885
WGst----------------------------
R01/19
XWnd-4-1-1-1-1-1-1-1-1-1-1-1-1VRB
HWnd-3-8-8-8-8-8-8-8-8-8-8-8-8VRB
R07/25
XWnd-4-8-8-8-8-8-8-8-8-8-8-8-8VRB
HWnd3-3-3-3-3-3-3-3-3-3-3-3-3VRB
Raw TAF
KLAS 280257Z 2803/2824 20008KT P6SM SKC
  FM281600 VRB05KT P6SM SKC


Raw METAR
KLAS 280256Z 15005KT 10SM CLR 33/02 A2996 RMK AO2 SLP119 T03330017 53001

TAF Board Legend

Hazard Green Yellow Red Magenta
Visibility (sm) >5 >2.99 >0.99 <=0.99
Ceiling (100 ft) >30 >9.99 >4.99 <=4.99
Wind Speed (kt) <10 <20 <30 >=30
Wind Gust (kt) <10 <20 <30 >=30
Weather No Wx Reported Light precipitation Moderate precipitation Heavy precipitation
Flight Category VFR MVFR IFR LIFR

Page loaded:  03:05 UTC  |   08:05 PM Pacific  |   09:05 PM Mountain  |   10:05 PM Central  |   11:05 PM Eastern

 

ADVISORIES

FORECASTS

FORECASTS

OBSERVATIONS

USER TOOLS

ABOUT US